AFR117 LFPG-EKCH
Flight info
| Callsign | AFR117 |
|---|---|
| Flight time | 1h 21m |
| Altitude | 41000 |
| Route | NURMO DCT CMB DCT VEKIN DCT ADUTO DCT VICOT DCT EEL DCT TALSA P729 TUDLO |
| Aircraft | A359/H-SDE2E3GHIJ3J4J5LM1ORWXY/LB1D1 |
Departure
| Time | 2026-05-04 11:12 |
|---|---|
| Airport | Charles de Gaulle International Airport (LFPG) |
Arrival
| Time | 2026-05-04 12:33 |
|---|---|
| Airport | Copenhagen Kastrup Airport (EKCH) |
| Time | Latitude | Longitude | Altitude | Speed | Heading |
|---|---|---|---|---|---|
| 2026-05-04 10:00 | 49.00747 | 2.58346 | 340 ft | 0 kts | 86° |
| 2026-05-04 10:54 | 49.00708 | 2.58230 | 335 ft | 0 kts | 356° |
| 2026-05-04 10:57 | 49.00720 | 2.58229 | 335 ft | 9 kts | 356° |
| 2026-05-04 10:57 | 49.00798 | 2.58199 | 335 ft | 11 kts | 321° |
| 2026-05-04 10:57 | 49.00849 | 2.58125 | 339 ft | 9 kts | 333° |
| 2026-05-04 10:58 | 49.00898 | 2.58078 | 336 ft | 7 kts | 300° |
| 2026-05-04 10:58 | 49.00903 | 2.57991 | 340 ft | 10 kts | 268° |
| 2026-05-04 10:58 | 49.00897 | 2.57869 | 340 ft | 13 kts | 265° |
| 2026-05-04 10:58 | 49.00888 | 2.57703 | 337 ft | 18 kts | 265° |
| 2026-05-04 10:59 | 49.00877 | 2.57489 | 337 ft | 22 kts | 265° |
| 2026-05-04 10:59 | 49.00865 | 2.57275 | 336 ft | 17 kts | 265° |
| 2026-05-04 10:59 | 49.00854 | 2.57095 | 336 ft | 17 kts | 265° |
| 2026-05-04 10:59 | 49.00844 | 2.56907 | 339 ft | 18 kts | 265° |
| 2026-05-04 11:00 | 49.00835 | 2.56710 | 340 ft | 19 kts | 266° |
| 2026-05-04 11:01 | 49.00722 | 2.55365 | 336 ft | 9 kts | 255° |
| 2026-05-04 11:02 | 49.00703 | 2.55305 | 336 ft | 9 kts | 245° |
| 2026-05-04 11:02 | 49.00719 | 2.55222 | 336 ft | 8 kts | 325° |
| 2026-05-04 11:05 | 49.01920 | 2.54488 | 368 ft | 23 kts | 265° |
| 2026-05-04 11:06 | 49.01904 | 2.54207 | 368 ft | 30 kts | 265° |
| 2026-05-04 11:06 | 49.01886 | 2.53870 | 373 ft | 33 kts | 265° |
| 2026-05-04 11:06 | 49.01867 | 2.53526 | 372 ft | 32 kts | 265° |
| 2026-05-04 11:06 | 49.01850 | 2.53185 | 368 ft | 32 kts | 265° |
| 2026-05-04 11:08 | 49.01858 | 2.51676 | 368 ft | 25 kts | 265° |
| 2026-05-04 11:10 | 49.02079 | 2.51599 | 375 ft | 12 kts | 85° |
| 2026-05-04 11:12 | 49.02995 | 2.63412 | 2996 ft | 254 kts | 88° |
| 2026-05-04 11:12 | 49.03060 | 2.66093 | 3905 ft | 259 kts | 89° |
| 2026-05-04 11:12 | 49.03159 | 2.68873 | 4774 ft | 266 kts | 86° |
| 2026-05-04 11:12 | 49.03287 | 2.71711 | 5647 ft | 272 kts | 88° |
| 2026-05-04 11:13 | 49.03541 | 2.74603 | 6527 ft | 280 kts | 71° |
| 2026-05-04 11:13 | 49.04636 | 2.77045 | 7455 ft | 286 kts | 40° |
| 2026-05-04 11:13 | 49.06324 | 2.78702 | 8358 ft | 292 kts | 23° |
| 2026-05-04 11:13 | 49.08283 | 2.79524 | 9306 ft | 294 kts | 2° |
| 2026-05-04 11:14 | 49.10342 | 2.79536 | 10211 ft | 300 kts | 354° |
| 2026-05-04 11:14 | 49.12497 | 2.79363 | 10720 ft | 322 kts | 354° |
| 2026-05-04 11:14 | 49.14810 | 2.79189 | 11228 ft | 341 kts | 354° |
| 2026-05-04 11:16 | 49.32582 | 2.78206 | 16849 ft | 385 kts | 355° |
| 2026-05-04 11:16 | 49.35280 | 2.78061 | 17638 ft | 390 kts | 355° |
| 2026-05-04 11:16 | 49.37972 | 2.77918 | 18406 ft | 396 kts | 356° |
| 2026-05-04 11:17 | 49.40746 | 2.77827 | 19132 ft | 401 kts | 357° |
| 2026-05-04 11:17 | 49.43548 | 2.77735 | 19887 ft | 405 kts | 357° |
| 2026-05-04 11:19 | 49.64086 | 2.76696 | 24630 ft | 440 kts | 356° |
| 2026-05-04 11:19 | 49.67168 | 2.76528 | 25195 ft | 445 kts | 356° |
| 2026-05-04 11:19 | 49.70276 | 2.76358 | 25762 ft | 450 kts | 356° |
| 2026-05-04 11:19 | 49.73434 | 2.76186 | 26314 ft | 455 kts | 356° |
| 2026-05-04 11:20 | 49.76612 | 2.76014 | 26877 ft | 460 kts | 356° |
| 2026-05-04 11:20 | 49.79837 | 2.76128 | 27416 ft | 466 kts | 5° |
| 2026-05-04 11:20 | 49.83030 | 2.77118 | 27962 ft | 471 kts | 18° |
| 2026-05-04 11:20 | 49.86057 | 2.79099 | 28493 ft | 474 kts | 31° |
| 2026-05-04 11:22 | 50.06095 | 2.98900 | 31673 ft | 502 kts | 34° |
| 2026-05-04 11:22 | 50.09057 | 3.01831 | 32085 ft | 506 kts | 34° |
| 2026-05-04 11:23 | 50.12039 | 3.04777 | 32498 ft | 510 kts | 34° |
| 2026-05-04 11:23 | 50.15046 | 3.07751 | 32894 ft | 513 kts | 34° |
| 2026-05-04 11:24 | 50.34300 | 3.23545 | 35363 ft | 523 kts | 24° |
| 2026-05-04 11:25 | 50.37605 | 3.25847 | 35934 ft | 519 kts | 24° |
| 2026-05-04 11:25 | 50.40909 | 3.28150 | 36442 ft | 516 kts | 24° |
| 2026-05-04 11:25 | 50.44168 | 3.30509 | 36902 ft | 515 kts | 26° |
| 2026-05-04 11:26 | 50.50552 | 3.35524 | 37807 ft | 511 kts | 27° |
| 2026-05-04 11:27 | 50.72988 | 3.51444 | 40048 ft | 504 kts | 23° |
| 2026-05-04 11:28 | 50.76197 | 3.53689 | 40300 ft | 503 kts | 23° |
| 2026-05-04 11:28 | 50.79392 | 3.55936 | 40556 ft | 503 kts | 23° |
| 2026-05-04 11:28 | 50.82590 | 3.58193 | 40811 ft | 502 kts | 23° |
| 2026-05-04 11:28 | 50.85784 | 3.60453 | 40965 ft | 504 kts | 24° |
| 2026-05-04 11:29 | 50.92252 | 3.65040 | 40987 ft | 513 kts | 24° |
| 2026-05-04 11:29 | 50.98793 | 3.69698 | 40984 ft | 515 kts | 24° |
| 2026-05-04 11:33 | 51.44148 | 4.02361 | 40992 ft | 508 kts | 24° |
| 2026-05-04 11:33 | 51.50119 | 4.08380 | 40997 ft | 508 kts | 40° |
| 2026-05-04 11:34 | 51.55432 | 4.15906 | 40991 ft | 509 kts | 43° |
| 2026-05-04 11:34 | 51.60629 | 4.23656 | 40991 ft | 510 kts | 43° |
| 2026-05-04 11:35 | 51.65833 | 4.31462 | 40989 ft | 510 kts | 43° |
| 2026-05-04 11:35 | 51.71009 | 4.39205 | 40984 ft | 511 kts | 43° |
| 2026-05-04 11:36 | 51.76220 | 4.47000 | 40988 ft | 511 kts | 43° |
| 2026-05-04 11:36 | 51.81441 | 4.54833 | 40990 ft | 512 kts | 43° |
| 2026-05-04 11:37 | 51.86651 | 4.62677 | 40988 ft | 512 kts | 43° |
| 2026-05-04 11:37 | 51.91871 | 4.70562 | 40988 ft | 513 kts | 43° |
| 2026-05-04 11:38 | 51.96819 | 4.78063 | 40989 ft | 513 kts | 43° |
| 2026-05-04 11:38 | 52.02007 | 4.85952 | 40988 ft | 513 kts | 43° |
| 2026-05-04 11:39 | 52.07217 | 4.93902 | 40984 ft | 514 kts | 43° |
| 2026-05-04 11:41 | 52.25429 | 5.21902 | 40988 ft | 515 kts | 43° |
| 2026-05-04 11:41 | 52.30639 | 5.29973 | 40985 ft | 516 kts | 43° |
| 2026-05-04 11:42 | 52.35847 | 5.38069 | 40994 ft | 516 kts | 43° |
| 2026-05-04 11:42 | 52.41047 | 5.46180 | 40991 ft | 516 kts | 43° |
| 2026-05-04 11:43 | 52.46251 | 5.54327 | 40995 ft | 517 kts | 43° |
| 2026-05-04 11:43 | 52.51453 | 5.62496 | 40994 ft | 517 kts | 43° |
| 2026-05-04 11:44 | 52.56643 | 5.70676 | 40991 ft | 517 kts | 43° |
| 2026-05-04 11:44 | 52.61796 | 5.78825 | 40989 ft | 516 kts | 43° |
| 2026-05-04 11:45 | 52.66977 | 5.87048 | 40982 ft | 516 kts | 43° |
| 2026-05-04 11:45 | 52.72141 | 5.95272 | 40981 ft | 516 kts | 43° |
| 2026-05-04 11:46 | 52.77308 | 6.03528 | 40983 ft | 516 kts | 43° |
| 2026-05-04 11:46 | 52.81587 | 6.10388 | 40987 ft | 516 kts | 43° |
| 2026-05-04 11:47 | 52.87576 | 6.20022 | 40976 ft | 516 kts | 43° |
| 2026-05-04 11:47 | 52.91882 | 6.26972 | 40988 ft | 515 kts | 43° |
| 2026-05-04 11:48 | 52.97013 | 6.35282 | 40988 ft | 515 kts | 43° |
| 2026-05-04 11:48 | 53.02103 | 6.43555 | 40995 ft | 515 kts | 43° |
| 2026-05-04 11:49 | 53.07217 | 6.51895 | 40995 ft | 514 kts | 43° |
| 2026-05-04 11:49 | 53.12320 | 6.60246 | 40995 ft | 514 kts | 43° |
| 2026-05-04 11:50 | 53.17422 | 6.68611 | 40980 ft | 514 kts | 43° |
| 2026-05-04 11:50 | 53.22748 | 6.76561 | 40993 ft | 513 kts | 39° |
| 2026-05-04 11:51 | 53.28156 | 6.84251 | 40996 ft | 513 kts | 39° |
| 2026-05-04 11:51 | 53.33563 | 6.92060 | 41021 ft | 513 kts | 39° |
| 2026-05-04 11:52 | 53.38920 | 6.99932 | 41028 ft | 513 kts | 40° |
| 2026-05-04 11:52 | 53.44275 | 7.07863 | 41030 ft | 512 kts | 40° |
| 2026-05-04 11:53 | 53.49619 | 7.15802 | 41029 ft | 512 kts | 40° |
| 2026-05-04 11:53 | 53.54950 | 7.23748 | 41018 ft | 512 kts | 40° |
| 2026-05-04 11:55 | 53.76180 | 7.55655 | 41021 ft | 512 kts | 40° |
| 2026-05-04 11:56 | 53.81491 | 7.63707 | 41022 ft | 512 kts | 40° |
| 2026-05-04 11:56 | 53.86787 | 7.71766 | 41025 ft | 512 kts | 40° |
| 2026-05-04 11:57 | 53.92087 | 7.79860 | 41027 ft | 512 kts | 40° |
| 2026-05-04 11:57 | 53.97374 | 7.87963 | 41029 ft | 512 kts | 40° |
| 2026-05-04 11:58 | 54.02627 | 7.96041 | 41030 ft | 512 kts | 40° |
| 2026-05-04 11:58 | 54.07905 | 8.04189 | 41027 ft | 512 kts | 40° |
| 2026-05-04 11:59 | 54.13174 | 8.12349 | 41026 ft | 512 kts | 40° |
| 2026-05-04 11:59 | 54.18440 | 8.20536 | 41024 ft | 512 kts | 40° |
| 2026-05-04 12:00 | 54.23698 | 8.28739 | 41015 ft | 512 kts | 41° |
| 2026-05-04 12:00 | 54.28925 | 8.36924 | 41018 ft | 512 kts | 41° |
| 2026-05-04 12:01 | 54.34182 | 8.45186 | 41021 ft | 512 kts | 41° |
| 2026-05-04 12:02 | 54.52525 | 8.74249 | 41010 ft | 512 kts | 41° |
| 2026-05-04 12:03 | 54.57727 | 8.82559 | 41006 ft | 513 kts | 41° |
| 2026-05-04 12:03 | 54.62953 | 8.90938 | 41005 ft | 513 kts | 41° |
| 2026-05-04 12:04 | 54.68179 | 8.99349 | 40992 ft | 513 kts | 41° |
| 2026-05-04 12:04 | 54.73402 | 9.07785 | 40991 ft | 513 kts | 41° |
| 2026-05-04 12:05 | 54.78622 | 9.16247 | 40984 ft | 514 kts | 41° |
| 2026-05-04 12:05 | 54.83835 | 9.24731 | 40977 ft | 514 kts | 41° |
| 2026-05-04 12:06 | 54.89040 | 9.33233 | 40979 ft | 514 kts | 41° |
| 2026-05-04 12:06 | 54.94212 | 9.41710 | 40980 ft | 514 kts | 41° |
| 2026-05-04 12:07 | 54.99415 | 9.50271 | 40984 ft | 514 kts | 41° |
| 2026-05-04 12:07 | 55.04612 | 9.58856 | 40989 ft | 514 kts | 41° |
| 2026-05-04 12:08 | 55.09575 | 9.67878 | 40988 ft | 518 kts | 54° |
| 2026-05-04 12:08 | 55.11304 | 9.73387 | 40991 ft | 518 kts | 69° |
| 2026-05-04 12:08 | 55.12499 | 9.79293 | 40986 ft | 518 kts | 72° |
| 2026-05-04 12:09 | 55.14642 | 9.91114 | 40985 ft | 520 kts | 72° |
| 2026-05-04 12:09 | 55.15717 | 9.97136 | 40680 ft | 517 kts | 72° |
| 2026-05-04 12:09 | 55.16785 | 10.03148 | 39953 ft | 519 kts | 72° |
| 2026-05-04 12:10 | 55.17842 | 10.09134 | 39191 ft | 523 kts | 72° |
| 2026-05-04 12:10 | 55.18911 | 10.15214 | 38334 ft | 520 kts | 72° |
| 2026-05-04 12:10 | 55.19966 | 10.21236 | 36777 ft | 517 kts | 72° |
| 2026-05-04 12:10 | 55.21022 | 10.27291 | 35034 ft | 521 kts | 73° |
| 2026-05-04 12:11 | 55.22082 | 10.33394 | 33258 ft | 525 kts | 73° |
| 2026-05-04 12:11 | 55.23139 | 10.39511 | 31555 ft | 523 kts | 73° |
| 2026-05-04 12:11 | 55.24184 | 10.45579 | 30111 ft | 517 kts | 73° |
| 2026-05-04 12:11 | 55.25213 | 10.51571 | 28575 ft | 508 kts | 73° |
| 2026-05-04 12:12 | 55.26218 | 10.57437 | 27203 ft | 497 kts | 73° |
| 2026-05-04 12:12 | 55.27202 | 10.63186 | 25916 ft | 486 kts | 73° |
| 2026-05-04 12:12 | 55.28167 | 10.68816 | 24651 ft | 476 kts | 73° |
| 2026-05-04 12:12 | 55.29109 | 10.74297 | 23798 ft | 460 kts | 73° |
| 2026-05-04 12:13 | 55.30003 | 10.79506 | 23298 ft | 446 kts | 73° |
| 2026-05-04 12:14 | 55.35978 | 11.14946 | 19745 ft | 420 kts | 73° |
| 2026-05-04 12:15 | 55.36790 | 11.19871 | 19252 ft | 417 kts | 73° |
| 2026-05-04 12:15 | 55.37594 | 11.24761 | 18756 ft | 414 kts | 73° |
| 2026-05-04 12:15 | 55.38380 | 11.29553 | 18267 ft | 412 kts | 73° |
| 2026-05-04 12:15 | 55.39180 | 11.34438 | 17730 ft | 409 kts | 73° |
| 2026-05-04 12:16 | 55.39951 | 11.39158 | 17237 ft | 405 kts | 73° |
| 2026-05-04 12:16 | 55.40722 | 11.43887 | 16762 ft | 400 kts | 73° |
| 2026-05-04 12:16 | 55.41483 | 11.48582 | 16302 ft | 396 kts | 73° |
| 2026-05-04 12:16 | 55.42229 | 11.53178 | 16136 ft | 383 kts | 73° |
| 2026-05-04 12:17 | 55.42948 | 11.57612 | 15997 ft | 371 kts | 73° |
| 2026-05-04 12:17 | 55.43737 | 11.61847 | 15836 ft | 357 kts | 64° |
| 2026-05-04 12:17 | 55.45125 | 11.65371 | 15463 ft | 347 kts | 41° |
| 2026-05-04 12:17 | 55.46903 | 11.68208 | 15077 ft | 343 kts | 36° |
| 2026-05-04 12:18 | 55.48707 | 11.70928 | 14721 ft | 340 kts | 37° |
| 2026-05-04 12:18 | 55.50484 | 11.73638 | 14379 ft | 336 kts | 37° |
| 2026-05-04 12:18 | 55.52241 | 11.76351 | 14043 ft | 333 kts | 37° |
| 2026-05-04 12:18 | 55.53971 | 11.79044 | 13695 ft | 330 kts | 37° |
| 2026-05-04 12:19 | 55.55687 | 11.81727 | 13336 ft | 328 kts | 38° |
| 2026-05-04 12:19 | 55.57387 | 11.84394 | 12990 ft | 325 kts | 38° |
| 2026-05-04 12:19 | 55.59074 | 11.87043 | 12672 ft | 323 kts | 38° |
| 2026-05-04 12:19 | 55.60748 | 11.89678 | 12337 ft | 321 kts | 38° |
| 2026-05-04 12:20 | 55.62410 | 11.92301 | 12008 ft | 319 kts | 38° |
| 2026-05-04 12:20 | 55.64068 | 11.94913 | 11686 ft | 318 kts | 38° |
| 2026-05-04 12:20 | 55.65711 | 11.97510 | 11351 ft | 315 kts | 38° |
| 2026-05-04 12:20 | 55.67323 | 12.00068 | 11028 ft | 314 kts | 38° |
| 2026-05-04 12:21 | 55.68944 | 12.02640 | 10704 ft | 312 kts | 38° |
| 2026-05-04 12:21 | 55.70563 | 12.05210 | 10365 ft | 310 kts | 38° |
| 2026-05-04 12:21 | 55.72123 | 12.07834 | 10049 ft | 311 kts | 45° |
| 2026-05-04 12:21 | 55.73184 | 12.11159 | 9716 ft | 313 kts | 74° |
| 2026-05-04 12:22 | 55.73318 | 12.14989 | 9364 ft | 311 kts | 96° |
| 2026-05-04 12:22 | 55.73071 | 12.18802 | 9023 ft | 311 kts | 98° |
| 2026-05-04 12:22 | 55.72801 | 12.22603 | 8704 ft | 310 kts | 98° |
| 2026-05-04 12:22 | 55.72544 | 12.26399 | 8382 ft | 309 kts | 97° |
| 2026-05-04 12:23 | 55.72298 | 12.30179 | 8057 ft | 307 kts | 97° |
| 2026-05-04 12:23 | 55.72062 | 12.33933 | 7742 ft | 306 kts | 97° |
| 2026-05-04 12:23 | 55.71823 | 12.37664 | 7411 ft | 304 kts | 97° |
| 2026-05-04 12:23 | 55.71584 | 12.41376 | 7098 ft | 302 kts | 97° |
| 2026-05-04 12:24 | 55.71348 | 12.45070 | 6768 ft | 301 kts | 97° |
| 2026-05-04 12:24 | 55.71130 | 12.48756 | 6440 ft | 299 kts | 95° |
| 2026-05-04 12:24 | 55.71368 | 12.52391 | 6114 ft | 297 kts | 69° |
| 2026-05-04 12:24 | 55.72210 | 12.55693 | 5811 ft | 292 kts | 60° |
| 2026-05-04 12:25 | 55.73153 | 12.58890 | 5512 ft | 292 kts | 60° |
| 2026-05-04 12:25 | 55.74089 | 12.62079 | 5184 ft | 291 kts | 60° |
| 2026-05-04 12:25 | 55.75196 | 12.64983 | 4904 ft | 284 kts | 43° |
| 2026-05-04 12:25 | 55.76629 | 12.67358 | 4737 ft | 281 kts | 37° |
| 2026-05-04 12:26 | 55.78113 | 12.69630 | 4560 ft | 280 kts | 37° |
| 2026-05-04 12:26 | 55.79583 | 12.71892 | 4387 ft | 279 kts | 37° |
| 2026-05-04 12:26 | 55.80953 | 12.74327 | 4359 ft | 278 kts | 49° |
| 2026-05-04 12:26 | 55.81820 | 12.77301 | 4336 ft | 266 kts | 72° |
| 2026-05-04 12:27 | 55.81943 | 12.80499 | 4115 ft | 254 kts | 99° |
| 2026-05-04 12:27 | 55.81282 | 12.83294 | 3663 ft | 242 kts | 130° |
| 2026-05-04 12:27 | 55.80045 | 12.85161 | 3303 ft | 225 kts | 158° |
| 2026-05-04 12:27 | 55.78613 | 12.85926 | 3207 ft | 210 kts | 179° |
| 2026-05-04 12:28 | 55.77221 | 12.85886 | 3102 ft | 192 kts | 191° |
| 2026-05-04 12:28 | 55.75941 | 12.85464 | 3015 ft | 185 kts | 201° |
| 2026-05-04 12:28 | 55.74825 | 12.84474 | 2937 ft | 180 kts | 221° |
| 2026-05-04 12:28 | 55.73882 | 12.83051 | 2855 ft | 177 kts | 226° |
| 2026-05-04 12:29 | 55.72949 | 12.81621 | 2774 ft | 177 kts | 225° |
| 2026-05-04 12:29 | 55.72018 | 12.80175 | 2666 ft | 178 kts | 225° |
| 2026-05-04 12:29 | 55.71089 | 12.78736 | 2450 ft | 176 kts | 225° |
| 2026-05-04 12:29 | 55.70166 | 12.77313 | 2223 ft | 176 kts | 225° |
| 2026-05-04 12:30 | 55.69243 | 12.75888 | 2025 ft | 175 kts | 226° |
| 2026-05-04 12:30 | 55.68326 | 12.74465 | 1918 ft | 173 kts | 225° |
| 2026-05-04 12:30 | 55.67469 | 12.73140 | 1705 ft | 157 kts | 225° |
| 2026-05-04 12:30 | 55.66683 | 12.71923 | 1493 ft | 142 kts | 226° |
| 2026-05-04 12:31 | 55.65971 | 12.70817 | 1315 ft | 130 kts | 227° |
| 2026-05-04 12:31 | 55.65313 | 12.69791 | 1138 ft | 124 kts | 227° |
| 2026-05-04 12:31 | 55.64669 | 12.68790 | 974 ft | 123 kts | 226° |
| 2026-05-04 12:31 | 55.64027 | 12.67785 | 779 ft | 124 kts | 226° |
| 2026-05-04 12:32 | 55.63380 | 12.66757 | 615 ft | 125 kts | 227° |
| 2026-05-04 12:32 | 55.62288 | 12.65117 | 312 ft | 123 kts | 226° |
| 2026-05-04 12:32 | 55.61639 | 12.64089 | 163 ft | 128 kts | 225° |
| 2026-05-04 12:33 | 55.60967 | 12.63063 | 33 ft | 124 kts | 217° |
| 2026-05-04 12:33 | 55.60424 | 12.62222 | 31 ft | 70 kts | 222° |
| 2026-05-04 12:33 | 55.60160 | 12.61800 | 31 ft | 43 kts | 221° |
| 2026-05-04 12:33 | 55.60050 | 12.61630 | 31 ft | 14 kts | 222° |
| 2026-05-04 12:34 | 55.60043 | 12.61497 | 32 ft | 12 kts | 303° |
| 2026-05-04 12:34 | 55.60114 | 12.61485 | 31 ft | 12 kts | 32° |
| 2026-05-04 12:34 | 55.60191 | 12.61597 | 31 ft | 16 kts | 40° |
| 2026-05-04 12:34 | 55.60286 | 12.61740 | 30 ft | 20 kts | 40° |
| 2026-05-04 12:35 | 55.60398 | 12.61915 | 30 ft | 23 kts | 41° |
| 2026-05-04 12:35 | 55.60522 | 12.62109 | 31 ft | 22 kts | 41° |
| 2026-05-04 12:35 | 55.60631 | 12.62277 | 31 ft | 20 kts | 40° |
| 2026-05-04 12:35 | 55.60762 | 12.62393 | 30 ft | 23 kts | 20° |
| 2026-05-04 12:36 | 55.60897 | 12.62562 | 30 ft | 25 kts | 41° |
| 2026-05-04 12:36 | 55.61038 | 12.62780 | 30 ft | 28 kts | 41° |
| 2026-05-04 12:36 | 55.61181 | 12.63000 | 30 ft | 23 kts | 41° |
| 2026-05-04 12:36 | 55.61239 | 12.63090 | 30 ft | 24 kts | 41° |
| 2026-05-04 12:37 | 55.61375 | 12.63300 | 30 ft | 26 kts | 41° |
| 2026-05-04 12:37 | 55.61516 | 12.63518 | 30 ft | 28 kts | 41° |
| 2026-05-04 12:37 | 55.61654 | 12.63730 | 30 ft | 19 kts | 41° |
| 2026-05-04 12:37 | 55.61764 | 12.63902 | 30 ft | 23 kts | 42° |
| 2026-05-04 12:38 | 55.61869 | 12.64060 | 30 ft | 18 kts | 34° |
| 2026-05-04 12:38 | 55.61985 | 12.64164 | 30 ft | 19 kts | 25° |
| 2026-05-04 12:38 | 55.62099 | 12.64260 | 30 ft | 17 kts | 26° |
| 2026-05-04 12:38 | 55.62203 | 12.64349 | 28 ft | 16 kts | 25° |
| 2026-05-04 12:39 | 55.62304 | 12.64407 | 29 ft | 15 kts | 15° |
| 2026-05-04 12:39 | 55.62387 | 12.64443 | 30 ft | 12 kts | 6° |
| 2026-05-04 12:39 | 55.62457 | 12.64366 | 30 ft | 13 kts | 311° |
| 2026-05-04 12:39 | 55.62510 | 12.64243 | 30 ft | 12 kts | 304° |
| 2026-05-04 12:40 | 55.62574 | 12.64232 | 30 ft | 9 kts | 36° |
| 2026-05-04 12:40 | 55.62604 | 12.64327 | 30 ft | 8 kts | 66° |
| 2026-05-04 12:40 | 55.62615 | 12.64371 | 30 ft | 3 kts | 67° |
| 2026-05-04 12:40 | 55.62624 | 12.64407 | 30 ft | 3 kts | 66° |
| 2026-05-04 12:41 | 55.62625 | 12.64412 | 30 ft | 0 kts | 66° |